createdAt,value
2022-07-28T00:00:08.357Z,0.00
2022-07-28T00:15:09.608Z,0.00
2022-07-28T00:30:09.761Z,0.00
2022-07-28T00:45:11.325Z,0.00
2022-07-28T01:00:11.266Z,0.00
2022-07-28T01:15:11.922Z,0.00
2022-07-28T01:30:12.535Z,0.00
2022-07-28T01:45:12.772Z,0.00
2022-07-28T02:00:12.944Z,0.00
2022-07-28T02:15:13.571Z,0.00
2022-07-28T02:30:14.205Z,0.00
2022-07-28T02:45:14.406Z,0.00
2022-07-28T03:00:14.633Z,0.00
2022-07-28T03:15:14.788Z,5.62
2022-07-28T03:30:15.040Z,22.50
2022-07-28T03:45:15.219Z,45.00
2022-07-28T04:00:15.463Z,151.88
2022-07-28T04:15:15.615Z,135.00
2022-07-28T04:30:16.823Z,180.00
2022-07-28T04:45:17.459Z,208.12
2022-07-28T05:00:17.739Z,247.50
2022-07-28T05:15:17.954Z,281.25
2022-07-28T05:30:18.106Z,298.12
2022-07-28T05:45:18.277Z,331.88
2022-07-28T06:00:18.885Z,354.38
2022-07-28T06:15:19.580Z,371.25
2022-07-28T06:30:19.713Z,421.88
2022-07-28T06:45:21.146Z,455.62
2022-07-28T07:00:22.227Z,405.00
2022-07-28T07:15:23.298Z,478.12
2022-07-28T07:30:23.517Z,545.62
2022-07-28T07:45:23.709Z,590.62
2022-07-28T08:00:28.722Z,675.00
2022-07-28T08:15:29.117Z,596.25
2022-07-28T08:30:32.683Z,686.25
2022-07-28T08:45:37.025Z,725.62
2022-07-28T09:00:37.182Z,787.50
2022-07-28T09:15:38.403Z,821.25
2022-07-28T09:30:51.822Z,860.62
2022-07-28T09:45:45.678Z,798.75
2022-07-28T10:00:45.759Z,1378.12
2022-07-28T10:15:50.840Z,680.62
2022-07-28T10:30:51.037Z,691.88
2022-07-28T10:46:05.514Z,658.12
2022-07-28T11:01:05.108Z,585.00
2022-07-28T11:16:02.510Z,641.25
2022-07-28T11:31:02.721Z,2947.50
2022-07-28T11:46:03.010Z,3206.25
2022-07-28T12:01:03.059Z,3397.50
2022-07-28T12:16:03.333Z,3538.12
2022-07-28T12:31:03.457Z,3802.50
2022-07-28T12:46:08.770Z,3465.00
2022-07-28T13:01:08.816Z,3386.25
2022-07-28T13:16:09.133Z,3346.88
2022-07-28T13:31:09.289Z,3690.00
2022-07-28T13:46:09.557Z,3712.50
2022-07-28T14:01:09.892Z,1755.00
2022-07-28T14:16:14.616Z,1659.38
2022-07-28T14:31:15.222Z,3397.50
2022-07-28T14:46:20.868Z,2750.62
2022-07-28T15:01:20.456Z,3088.12
2022-07-28T15:16:20.626Z,2683.12
2022-07-28T15:31:20.933Z,2638.12
2022-07-28T15:46:21.048Z,2216.25
2022-07-28T16:01:21.251Z,472.50
2022-07-28T16:16:21.859Z,354.38
2022-07-28T16:31:22.586Z,292.50
2022-07-28T16:46:22.745Z,241.88
2022-07-28T17:01:23.413Z,219.38
2022-07-28T17:16:23.633Z,185.62
2022-07-28T17:31:24.279Z,157.50
2022-07-28T17:46:26.729Z,135.00
2022-07-28T18:01:27.598Z,112.50
2022-07-28T18:16:27.798Z,90.00
2022-07-28T18:31:27.968Z,56.25
2022-07-28T18:46:28.099Z,28.12
2022-07-28T19:01:28.263Z,11.25
2022-07-28T19:16:28.415Z,0.00
2022-07-28T19:31:28.617Z,0.00
2022-07-28T19:46:28.795Z,0.00
2022-07-28T20:01:29.410Z,0.00
2022-07-28T20:16:30.173Z,0.00
2022-07-28T20:31:30.747Z,0.00
2022-07-28T20:46:30.984Z,0.00
2022-07-28T21:01:31.079Z,0.00
2022-07-28T21:16:31.419Z,0.00
2022-07-28T21:31:31.473Z,0.00
2022-07-28T21:46:31.646Z,0.00
2022-07-28T22:01:32.021Z,0.00
2022-07-28T22:16:32.833Z,0.00
2022-07-28T22:31:33.179Z,0.00
2022-07-28T22:46:33.383Z,0.00
2022-07-28T23:01:33.517Z,0.00
2022-07-28T23:16:33.686Z,0.00
2022-07-28T23:31:34.373Z,0.00
2022-07-28T23:46:35.086Z,0.00
